Observation data for Paducah on 01/18/2019      Previous  Date  Next       Current Mesonet Observations  Soil Data  Daily Summary Page  Observations in Plain Language
KPAD 180600Z 21009KT 05/04 A3001 RMK A01 T00500037  RH  094%=      5-min Rain = 0
KPAD 180605Z 21009KT 05/04 A3001 RMK A01 T00510038  RH  093%=      5-min Rain = 0
KPAD 180610Z 20009KT 05/04 A30 RMK A01 T00500038  RH  093%=      5-min Rain = 0
KPAD 180615Z 20009KT 05/04 A30 RMK A01 T00500038  RH  093%=      5-min Rain = 0
KPAD 180620Z 20008KT 05/04 A30 RMK A01 T00490036  RH  093%=      5-min Rain = 0
KPAD 180625Z 20009KT 05/04 A30 RMK A01 T00480036  RH  094%=      5-min Rain = 0
KPAD 180630Z 19010KT 05/04 A30 RMK A01 T00490037  RH  094%=      5-min Rain = 0
KPAD 180635Z 20010KT 05/04 A30 RMK A01 T00490037  RH  094%=      5-min Rain = 0
KPAD 180640Z 19010KT 05/04 A2999 RMK A01 T00470036  RH  094%=      5-min Rain = 0
KPAD 180645Z 19011KT 05/04 A2999 RMK A01 T00460035  RH  094%=      5-min Rain = 0
KPAD 180650Z 19011KT 05/04 A2998 RMK A01 T00470036  RH  094%=      5-min Rain = 0
KPAD 180655Z 20011KT 05/04 A2998 RMK A01 T00480037  RH  095%=      5-min Rain = 0
KPAD 180700Z 20011KT 05/04 A2998 RMK A01 T00480037  RH  094%=      5-min Rain = 0
KPAD 180705Z 20010KT 05/04 A2998 RMK A01 T00460035  RH  094%=      5-min Rain = 0
KPAD 180710Z 20010KT 05/04 A2998 RMK A01 T00450035  RH  095%=      5-min Rain = 0
KPAD 180715Z 20011KT 04/03 A2997 RMK A01 T00440034  RH  095%=      5-min Rain = 0
KPAD 180720Z 20011KT 04/03 A2997 RMK A01 T00430033  RH  095%=      5-min Rain = 0
KPAD 180725Z 20011KT 04/03 A2997 RMK A01 T00410031  RH  095%=      5-min Rain = 0
KPAD 180730Z 20011KT 04/03 A2996 RMK A01 T00410032  RH  096%=      5-min Rain = 0
KPAD 180735Z 19011KT 04/03 A2996 RMK A01 T00420033  RH  096%=      5-min Rain = 0
KPAD 180740Z 20011KT 04/03 A2995 RMK A01 T00410032  RH  096%=      5-min Rain = 0
KPAD 180745Z 19012KT 04/03 A2995 RMK A01 T00410032  RH  096%=      5-min Rain = 0
KPAD 180750Z 20012KT 04/03 A2995 RMK A01 T00410032  RH  096%=      5-min Rain = 0
KPAD 180755Z 19012KT 04/03 A2995 RMK A01 T00410033  RH  096%=      5-min Rain = 0
KPAD 180800Z 19012KT 04/03 A2994 RMK A01 T00410032  RH  096%=      5-min Rain = 0
KPAD 180805Z 19012KT 04/03 A2994 RMK A01 T00410031  RH  096%=      5-min Rain = 0
KPAD 180810Z 19012KT 04/03 A2994 RMK A01 T00420033  RH  096%=      5-min Rain = 0
KPAD 180815Z 19011KT 04/04 A2994 RMK A01 T00440035  RH  096%=      5-min Rain = 0
KPAD 180820Z 19011KT 05/04 A2994 RMK A01 T00450036  RH  095%=      5-min Rain = 0
KPAD 180825Z 19011KT 05/04 A2994 RMK A01 T00460036  RH  095%=      5-min Rain = 0
KPAD 180830Z 19011KT 05/03 A2994 RMK A01 T00450034  RH  094%=      5-min Rain = 0
KPAD 180835Z 19011KT 05/03 A2994 RMK A01 T00450034  RH  094%=      5-min Rain = 0
KPAD 180840Z 19011KT 05/03 A2993 RMK A01 T00450033  RH  094%=      5-min Rain = 0
KPAD 180845Z 19011KT 04/03 A2993 RMK A01 T00420030  RH  094%=      5-min Rain = 0
KPAD 180850Z 19010KT 04/03 A2993 RMK A01 T00400028  RH  094%=      5-min Rain = 0
KPAD 180855Z 20011KT 04/03 A2993 RMK A01 T00370025  RH  094%=      5-min Rain = 0
KPAD 180900Z 20010KT 03/02 A2992 RMK A01 T00340024  RH  094%=      5-min Rain = 0
KPAD 180905Z 20010KT 03/02 A2992 RMK A01 T00320022  RH  095%=      5-min Rain = 0
KPAD 180910Z 20010KT 03/02 A2992 RMK A01 T00300021  RH  095%=      5-min Rain = 0
KPAD 180915Z 20010KT 03/02 A2992 RMK A01 T00290020  RH  095%=      5-min Rain = 0
KPAD 180920Z 19010KT 03/02 A2991 RMK A01 T00290021  RH  096%=      5-min Rain = 0
KPAD 180925Z 19010KT 03/02 A2991 RMK A01 T00280020  RH  095%=      5-min Rain = 0
KPAD 180930Z 20011KT 03/02 A2991 RMK A01 T00260017  RH  096%=      5-min Rain = 0
KPAD 180935Z 20012KT 03/02 A299 RMK A01 T00270020  RH  096%=      5-min Rain = 0
KPAD 180940Z 20012KT 03/02 A299 RMK A01 T00300022  RH  096%=      5-min Rain = 0
KPAD 180945Z 21012KT 03/03 A299 RMK A01 T00340026  RH  096%=      5-min Rain = 0
KPAD 180950Z 21012KT 04/03 A299 RMK A01 T00390030  RH  096%=      5-min Rain = 0
KPAD 180955Z 20012KT 04/03 A2989 RMK A01 T00430032  RH  094%=      5-min Rain = 0
KPAD 181000Z 21013KT 05/03 A2989 RMK A01 T00450033  RH  093%=      5-min Rain = 0
KPAD 181005Z 21013KT 05/03 A2989 RMK A01 T00490034  RH  091%=      5-min Rain = 0
KPAD 181010Z 21013KT 05/03 A2988 RMK A01 T00510033  RH  090%=      5-min Rain = 0
KPAD 181015Z 21014KT 05/03 A2988 RMK A01 T00520032  RH  088%=      5-min Rain = 0
KPAD 181020Z 21014KT 05/03 A2987 RMK A01 T00520031  RH  088%=      5-min Rain = 0
KPAD 181025Z 21015KT 05/03 A2987 RMK A01 T00520030  RH  087%=      5-min Rain = 0
KPAD 181030Z 21014KT 05/03 A2987 RMK A01 T00540030  RH  086%=      5-min Rain = 0
KPAD 181035Z 21014KT 05/03 A2986 RMK A01 T00540029  RH  086%=      5-min Rain = 0
KPAD 181040Z 21014KT 05/03 A2986 RMK A01 T00530029  RH  086%=      5-min Rain = 0
KPAD 181045Z 21012KT 05/03 A2986 RMK A01 T00530029  RH  086%=      5-min Rain = 0
KPAD 181050Z 21012KT 05/03 A2986 RMK A01 T00510028  RH  086%=      5-min Rain = 0
KPAD 181055Z 21013KT 05/03 A2986 RMK A01 T00500028  RH  087%=      5-min Rain = 0
KPAD 181100Z 21014KT 05/03 A2986 RMK A01 T00510028  RH  087%=      5-min Rain = 0
KPAD 181105Z 21015KT 05/03 A2985 RMK A01 T00540029  RH  085%=      5-min Rain = 0
KPAD 181110Z 22015KT 06/03 A2985 RMK A01 T00570029  RH  084%=      5-min Rain = 0
KPAD 181115Z 21015KT 06/03 A2985 RMK A01 T00590030  RH  083%=      5-min Rain = 0
KPAD 181120Z 21015KT 06/03 A2984 RMK A01 T00620030  RH  081%=      5-min Rain = 0
KPAD 181125Z 21015KT 06/03 A2984 RMK A01 T00640030  RH  081%=      5-min Rain = 0
KPAD 181130Z 21015KT 06/03 A2984 RMK A01 T00640030  RH  080%=      5-min Rain = 0
KPAD 181135Z 21015KT 06/03 A2983 RMK A01 T00630029  RH  080%=      5-min Rain = 0
KPAD 181140Z 21014KT 06/03 A2983 RMK A01 T00630029  RH  080%=      5-min Rain = 0
KPAD 181145Z 21014KT 06/03 A2982 RMK A01 T00620029  RH  081%=      5-min Rain = 0
KPAD 181150Z 22014KT 06/03 A2982 RMK A01 T00600028  RH  081%=      5-min Rain = 0
KPAD 181155Z 22014KT 06/03 A2982 RMK A01 T00590028  RH  082%=      5-min Rain = 0
KPAD 181200Z 22013KT 06/03 A2982 RMK A01 T00610030  RH  082%=      5-min Rain = 0
KPAD 181205Z 22014KT 06/03 A2981 RMK A01 T00640032  RH  082%=      5-min Rain = 0
KPAD 181210Z 22013KT 07/03 A2981 RMK A01 T00680034  RH  080%=      5-min Rain = 0
KPAD 181215Z 22013KT 07/04 A2981 RMK A01 T00720037  RH  080%=      5-min Rain = 0
KPAD 181220Z 22014KT 08/04 A2981 RMK A01 T00760037  RH  078%=      5-min Rain = 0
KPAD 181225Z 22013KT 08/04 A2981 RMK A01 T00770037  RH  077%=      5-min Rain = 0
KPAD 181230Z 22014KT 08/04 A2981 RMK A01 T00770036  RH  077%=      5-min Rain = 0
KPAD 181235Z 22014KT 08/04 A298 RMK A01 T00770036  RH  077%=      5-min Rain = 0
KPAD 181240Z 21013KT 08/04 A298 RMK A01 T00750035  RH  077%=      5-min Rain = 0
KPAD 181245Z 21013KT 07/03 A298 RMK A01 T00700033  RH  079%=      5-min Rain = 0
KPAD 181250Z 21013KT 07/03 A298 RMK A01 T00680032  RH  080%=      5-min Rain = 0
KPAD 181255Z 22013KT 07/03 A298 RMK A01 T00670031  RH  080%=      5-min Rain = 0
KPAD 181300Z 22013KT 07/03 A298 RMK A01 T00650030  RH  080%=      5-min Rain = 0
KPAD 181305Z 23012KT 06/03 A298 RMK A01 T00620029  RH  081%=      5-min Rain = 0
KPAD 181310Z 22012KT 06/03 A2979 RMK A01 T00610029  RH  081%=      5-min Rain = 0
KPAD 181315Z 22012KT 06/03 A2979 RMK A01 T00620029  RH  081%=      5-min Rain = 0
KPAD 181320Z 22012KT 06/03 A2979 RMK A01 T00630030  RH  081%=      5-min Rain = 0
KPAD 181325Z 22014KT 07/03 A2979 RMK A01 T00660030  RH  079%=      5-min Rain = 0
KPAD 181330Z 22014KT 07/03 A2979 RMK A01 T00670031  RH  079%=      5-min Rain = 0
KPAD 181335Z 22014G19KT 07/03 A2978 RMK A01 T00720032  RH  077%=      5-min Rain = 0
KPAD 181340Z 22014KT 08/03 A2979 RMK A01 T00750033  RH  076%=      5-min Rain = 0
KPAD 181345Z 22014KT 08/03 A2979 RMK A01 T00780033  RH  075%=      5-min Rain = 0
KPAD 181350Z 22013KT 08/03 A2979 RMK A01 T00780032  RH  074%=      5-min Rain = 0
KPAD 181355Z 22012KT 08/03 A2979 RMK A01 T00770031  RH  074%=      5-min Rain = 0
KPAD 181400Z 22011KT 08/03 A298 RMK A01 T00760031  RH  074%=      5-min Rain = 0
KPAD 181405Z 22009KT 08/03 A298 RMK A01 T00770032  RH  075%=      5-min Rain = 0
KPAD 181410Z 22009KT 08/04 A2979 RMK A01 T00810035  RH  074%=      5-min Rain = 0
KPAD 181415Z 22009KT 09/04 A2979 RMK A01 T00850036  RH  073%=      5-min Rain = 0
KPAD 181420Z 21010KT 09/04 A2979 RMK A01 T00860035  RH  072%=      5-min Rain = 0
KPAD 181425Z 21011KT 09/04 A2979 RMK A01 T00870036  RH  072%=      5-min Rain = 0
KPAD 181430Z 21010KT 09/04 A2979 RMK A01 T00900037  RH  071%=      5-min Rain = 0
KPAD 181435Z 21010KT 09/04 A2979 RMK A01 T00940038  RH  069%=      5-min Rain = 0
KPAD 181440Z 21011KT 10/04 A2978 RMK A01 T00990037  RH  066%=      5-min Rain = 0
KPAD 181445Z 21011KT 10/04 A2978 RMK A01 T01000036  RH  066%=      5-min Rain = 0
KPAD 181450Z 22010KT 10/04 A2978 RMK A01 T01010037  RH  066%=      5-min Rain = 0
KPAD 181455Z 22010KT 11/04 A2978 RMK A01 T01050039  RH  065%=      5-min Rain = 0
KPAD 181500Z 22010KT 11/04 A2978 RMK A01 T01110039  RH  062%=      5-min Rain = 0
KPAD 181505Z 22010KT 11/04 A2978 RMK A01 T01130038  RH  061%=      5-min Rain = 0
KPAD 181510Z 22011KT 11/04 A2978 RMK A01 T01140038  RH  060%=      5-min Rain = 0
KPAD 181515Z 22011G16KT 12/04 A2977 RMK A01 T01150037  RH  060%=      5-min Rain = 0
KPAD 181520Z 22011KT 11/04 A2977 RMK A01 T01140037  RH  060%=      5-min Rain = 0
KPAD 181525Z 23013KT 12/04 A2977 RMK A01 T01200035  RH  057%=      5-min Rain = 0
KPAD 181530Z 23013G19KT 12/04 A2977 RMK A01 T01240035  RH  055%=      5-min Rain = 0
KPAD 181535Z 23012KT 13/04 A2976 RMK A01 T01290036  RH  054%=      5-min Rain = 0
KPAD 181540Z 21012G17KT 14/04 A2976 RMK A01 T01370043  RH  054%=      5-min Rain = 0
KPAD 181545Z 21011G16KT 14/04 A2976 RMK A01 T01390044  RH  054%=      5-min Rain = 0
KPAD 181550Z 22012G17KT 14/04 A2976 RMK A01 T01400043  RH  053%=      5-min Rain = 0
KPAD 181555Z 23014KT 15/04 A2976 RMK A01 T01520040  RH  048%=      5-min Rain = 0
KPAD 181600Z 23014G20KT 15/04 A2976 RMK A01 T01540035  RH  046%=      5-min Rain = 0
KPAD 181605Z 23013KT 15/04 A2977 RMK A01 T01520036  RH  046%=      5-min Rain = 0
KPAD 181610Z 23013KT 15/04 A2977 RMK A01 T01510036  RH  047%=      5-min Rain = 0
KPAD 181615Z 23013KT 15/04 A2976 RMK A01 T01530035  RH  046%=      5-min Rain = 0
KPAD 181620Z 23013KT 16/04 A2976 RMK A01 T01570035  RH  045%=      5-min Rain = 0
KPAD 181625Z 24013G18KT 16/04 A2976 RMK A01 T01630035  RH  043%=      5-min Rain = 0
KPAD 181630Z 24014KT 17/03 A2976 RMK A01 T01680032  RH  041%=      5-min Rain = 0
KPAD 181635Z 24014G19KT 17/03 A2976 RMK A01 T01670030  RH  041%=      5-min Rain = 0
KPAD 181640Z 24015G20KT 16/03 A2976 RMK A01 T01640030  RH  041%=      5-min Rain = 0
KPAD 181645Z 24012KT 16/03 A2976 RMK A01 T01640033  RH  042%=      5-min Rain = 0
KPAD 181650Z 24011KT 17/03 A2975 RMK A01 T01650034  RH  042%=      5-min Rain = 0
KPAD 181655Z 23011KT 17/03 A2975 RMK A01 T01670033  RH  042%=      5-min Rain = 0
KPAD 181700Z 24011KT 17/03 A2975 RMK A01 T01690031  RH  040%=      5-min Rain = 0
KPAD 181705Z 24012KT 17/03 A2975 RMK A01 T01730029  RH  039%=      5-min Rain = 0
KPAD 181710Z 23012KT 17/03 A2975 RMK A01 T01740027  RH  038%=      5-min Rain = 0
KPAD 181715Z 22011KT 17/03 A2974 RMK A01 T01730029  RH  039%=      5-min Rain = 0
KPAD 181720Z 21010KT 17/03 A2974 RMK A01 T01740032  RH  039%=      5-min Rain = 0
KPAD 181725Z 21010KT 18/04 A2973 RMK A01 T01820036  RH  038%=      5-min Rain = 0
KPAD 181730Z 22010KT 19/03 A2973 RMK A01 T01900029  RH  035%=      5-min Rain = 0
KPAD 181735Z 23009KT 20/03 A2973 RMK A01 T01950028  RH  034%=      5-min Rain = 0
KPAD 181740Z 18009KT 19/04 A2973 RMK A01 T01940039  RH  036%=      5-min Rain = 0
KPAD 181745Z 23009G15KT 20/03 A2972 RMK A01 T02010026  RH  032%=      5-min Rain = 0
KPAD 181750Z 24015G20KT 21/01 A2971 RMK A01 T02120013  RH  027%=      5-min Rain = 0
KPAD 181755Z 24014G20KT 22/02 A2971 RMK A01 T02150015  RH  027%=      5-min Rain = 0
KPAD 181800Z 24015KT 21/01 A2971 RMK A01 T02140013  RH  027%=      5-min Rain = 0
KPAD 181805Z 24017G24KT 22/01 A297 RMK A01 T02150011  RH  026%=      5-min Rain = 0
KPAD 181810Z 25016G22KT 21/01 A297 RMK A01 T02140011  RH  026%=      5-min Rain = 0
KPAD 181815Z 24017G24KT 22/02 A2969 RMK A01 T02150015  RH  027%=      5-min Rain = 0
KPAD 181820Z 22014KT 22/03 A2969 RMK A01 T02160025  RH  029%=      5-min Rain = 0
KPAD 181825Z 23013G18KT 21/02 A2969 RMK A01 T02130021  RH  028%=      5-min Rain = 0
KPAD 181830Z 23015G22KT 22/02 A2968 RMK A01 T02170023  RH  028%=      5-min Rain = 0
KPAD 181835Z 22015KT 21/02 A2967 RMK A01 T02140024  RH  029%=      5-min Rain = 0
KPAD 181840Z 22017G24KT 22/02 A2966 RMK A01 T02190021  RH  027%=      5-min Rain = 0
KPAD 181845Z 23014G21KT 21/02 A2965 RMK A01 T02120022  RH  029%=      5-min Rain = 0
KPAD 181850Z 22015G22KT 21/02 A2965 RMK A01 T02110021  RH  029%=      5-min Rain = 0
KPAD 181855Z 23015G21KT 21/02 A2965 RMK A01 T02110016  RH  028%=      5-min Rain = 0
KPAD 181900Z 24016G21KT 21/02 A2965 RMK A01 T02120015  RH  028%=      5-min Rain = 0
KPAD 181905Z 24014KT 21/02 A2964 RMK A01 T02120016  RH  028%=      5-min Rain = 0
KPAD 181910Z 24016G21KT 21/02 A2964 RMK A01 T02110015  RH  028%=      5-min Rain = 0
KPAD 181915Z 24015G20KT 22/02 A2963 RMK A01 T02150017  RH  027%=      5-min Rain = 0
KPAD 181920Z 24018KT 22/02 A2962 RMK A01 T02190015  RH  026%=      5-min Rain = 0
KPAD 181925Z 24016G21KT 22/01 A2962 RMK A01 T02210014  RH  026%=      5-min Rain = 0
KPAD 181930Z 25017G22KT 22/01 A2962 RMK A01 T02210013  RH  026%=      5-min Rain = 0
KPAD 181935Z 25017G22KT 22/01 A2961 RMK A01 T02210013  RH  026%=      5-min Rain = 0
KPAD 181940Z 26017G26KT 22/01 A2961 RMK A01 T02220013  RH  026%=      5-min Rain = 0
KPAD 181945Z 27022G32KT 22/01 A296 RMK A01 T02210009  RH  025%=      5-min Rain = 0
KPAD 181950Z 26023G35KT 22/01 A2959 RMK A01 T02230010  RH  025%=      5-min Rain = 0
KPAD 181955Z 25022G30KT 22/01 A2959 RMK A01 T02240009  RH  024%=      5-min Rain = 0
KPAD 182000Z 25022G30KT 22/01 A2959 RMK A01 T02240007  RH  024%=      5-min Rain = 0
KPAD 182005Z 25021G27KT 22/01 A2959 RMK A01 T02240007  RH  024%=      5-min Rain = 0
KPAD 182010Z 25021G29KT 23/01 A2959 RMK A01 T02250007  RH  024%=      5-min Rain = 0
KPAD 182015Z 25023G30KT 23/01 A2958 RMK A01 T02270007  RH  023%=      5-min Rain = 0
KPAD 182020Z 25023G31KT 23/01 A2958 RMK A01 T02280006  RH  023%=      5-min Rain = 0
KPAD 182025Z 25024G31KT 23/01 A2957 RMK A01 T02290005  RH  023%=      5-min Rain = 0
KPAD 182030Z 26022G32KT 23/01 A2957 RMK A01 T02290006  RH  023%=      5-min Rain = 0
KPAD 182035Z 25020G32KT 23/01 A2957 RMK A01 T02310007  RH  023%=      5-min Rain = 0
KPAD 182040Z 26024G30KT 23/01 A2956 RMK A01 T02270007  RH  024%=      5-min Rain = 0
KPAD 182045Z 27024G31KT 23/01 A2957 RMK A01 T02270007  RH  024%=      5-min Rain = 0
KPAD 182050Z 27024G29KT 23/01 A2957 RMK A01 T02250008  RH  024%=      5-min Rain = 0
KPAD 182055Z 26025G36KT 22/01 A2957 RMK A01 T02230008  RH  024%=      5-min Rain = 0
KPAD 182100Z 27025G33KT 22/01 A2957 RMK A01 T02220005  RH  024%=      5-min Rain = 0
KPAD 182105Z 27023G32KT 22/01 A2957 RMK A01 T02220006  RH  024%=      5-min Rain = 0
KPAD 182110Z 27021G27KT 23/01 A2957 RMK A01 T02260008  RH  024%=      5-min Rain = 0
KPAD 182115Z 26019G25KT 23/01 A2957 RMK A01 T02300008  RH  023%=      5-min Rain = 0
KPAD 182120Z 26024G32KT 23/00 A2957 RMK A01 T02280004  RH  023%=      5-min Rain = 0
KPAD 182125Z 28022G29KT 22/00 A2957 RMK A01 T02210001  RH  023%=      5-min Rain = 0
KPAD 182130Z 27026G34KT 22/M00 A2957 RMK A01 T02191001  RH  023%=      5-min Rain = 0
KPAD 182135Z 27021G29KT 22/M00 A2957 RMK A01 T02181001  RH  024%=      5-min Rain = 0
KPAD 182140Z 27021G28KT 22/M00 A2957 RMK A01 T02201001  RH  023%=      5-min Rain = 0
KPAD 182145Z 27025G35KT 22/M00 A2957 RMK A01 T02221002  RH  023%=      5-min Rain = 0
KPAD 182150Z 26025G34KT 22/M01 A2957 RMK A01 T02201005  RH  023%=      5-min Rain = 0
KPAD 182155Z 27026G34KT 22/M00 A2957 RMK A01 T02191004  RH  023%=      5-min Rain = 0
KPAD 182200Z 27023G32KT 22/M00 A2957 RMK A01 T02191004  RH  023%=      5-min Rain = 0
KPAD 182205Z 27025G35KT 22/M00 A2957 RMK A01 T02181004  RH  023%=      5-min Rain = 0
KPAD 182210Z 28023G31KT 22/M00 A2957 RMK A01 T02191004  RH  023%=      5-min Rain = 0
KPAD 182215Z 28024G33KT 22/M00 A2957 RMK A01 T02161002  RH  024%=      5-min Rain = 0
KPAD 182220Z 28024G31KT 22/00 A2958 RMK A01 T021500-0  RH  024%=      5-min Rain = 0
KPAD 182225Z 28023G31KT 21/00 A2958 RMK A01 T02140002  RH  025%=      5-min Rain = 0
KPAD 182230Z 28021G29KT 21/00 A2958 RMK A01 T02130004  RH  025%=      5-min Rain = 0
KPAD 182235Z 28021G30KT 21/01 A2958 RMK A01 T02120006  RH  026%=      5-min Rain = 0
KPAD 182240Z 27026G32KT 21/00 A2958 RMK A01 T02100002  RH  025%=      5-min Rain = 0
KPAD 182245Z 27022G28KT 21/00 A2958 RMK A01 T02060001  RH  026%=      5-min Rain = 0
KPAD 182250Z 27022G31KT 21/00 A2958 RMK A01 T02050001  RH  026%=      5-min Rain = 0
KPAD 182255Z 27022G29KT 20/00 A2958 RMK A01 T02040001  RH  026%=      5-min Rain = 0
KPAD 182300Z 28023G29KT 20/00 A2958 RMK A01 T02030002  RH  026%=      5-min Rain = 0
KPAD 182305Z 28020G29KT 20/00 A2958 RMK A01 T02030003  RH  027%=      5-min Rain = 0
KPAD 182310Z 28022G29KT 20/00 A2958 RMK A01 T02010002  RH  027%=      5-min Rain = 0
KPAD 182315Z 28022G31KT 20/00 A2958 RMK A01 T02000001  RH  027%=      5-min Rain = 0
KPAD 182320Z 27020G27KT 20/00 A2958 RMK A01 T01990000  RH  027%=      5-min Rain = 0
KPAD 182325Z 27015G20KT 20/00 A2958 RMK A01 T01960001  RH  027%=      5-min Rain = 0
KPAD 182330Z 27015G21KT 19/00 A2959 RMK A01 T01930001  RH  028%=      5-min Rain = 0
KPAD 182335Z 27017G24KT 19/00 A2959 RMK A01 T01930002  RH  028%=      5-min Rain = 0
KPAD 182340Z 27016KT 19/00 A2959 RMK A01 T01930002  RH  028%=      5-min Rain = 0
KPAD 182345Z 27017G24KT 19/00 A2959 RMK A01 T01910003  RH  029%=      5-min Rain = 0
KPAD 182350Z 27017G27KT 19/00 A2959 RMK A01 T01890002  RH  029%=      5-min Rain = 0
KPAD 182355Z 27018G25KT 19/M00 A296 RMK A01 T01901001  RH  028%=      5-min Rain = 0
KPAD 190000Z 27018G24KT 19/M00 A296 RMK A01 T01891003  RH  028%=      5-min Rain = 0
KPAD 190005Z 27016G22KT 19/M00 A296 RMK A01 T01881004  RH  028%=      5-min Rain = 0
KPAD 190010Z 27015G20KT 19/M01 A296 RMK A01 T01861005  RH  028%=      5-min Rain = 0
KPAD 190015Z 27014KT 19/M01 A296 RMK A01 T01851006  RH  028%=      5-min Rain = 0
KPAD 190020Z 27014G19KT 18/M01 A2961 RMK A01 T01841008  RH  028%=      5-min Rain = 0
KPAD 190025Z 26014KT 18/M01 A2961 RMK A01 T01831008  RH  028%=      5-min Rain = 0
KPAD 190030Z 26013KT 18/M01 A2961 RMK A01 T01821009  RH  028%=      5-min Rain = 0
KPAD 190035Z 26013KT 18/M01 A296 RMK A01 T01801010  RH  028%=      5-min Rain = 0
KPAD 190040Z 27013G18KT 18/M01 A296 RMK A01 T01781013  RH  027%=      5-min Rain = 0
KPAD 190045Z 27014G19KT 18/M02 A2961 RMK A01 T01771018  RH  027%=      5-min Rain = 0
KPAD 190050Z 27015G21KT 18/M02 A2961 RMK A01 T01751020  RH  027%=      5-min Rain = 0
KPAD 190055Z 27015KT 17/M02 A2962 RMK A01 T01731021  RH  027%=      5-min Rain = 0
KPAD 190100Z 27014KT 17/M02 A2962 RMK A01 T01711022  RH  027%=      5-min Rain = 0
KPAD 190105Z 27013G18KT 17/M02 A2962 RMK A01 T01681022  RH  027%=      5-min Rain = 0
KPAD 190110Z 27014G19KT 17/M02 A2963 RMK A01 T01661023  RH  027%=      5-min Rain = 0
KPAD 190115Z 27013KT 16/M02 A2964 RMK A01 T01641024  RH  028%=      5-min Rain = 0
KPAD 190120Z 31015G26KT 16/M02 A2966 RMK A01 T01611021  RH  029%=      5-min Rain = 0
KPAD 190125Z 35025G32KT 13/01 A2968 RMK A01 T01330012  RH  044%=      5-min Rain = 0
KPAD 190130Z 36025G33KT 11/01 A2969 RMK A01 T01100013  RH  052%=      5-min Rain = 0
KPAD 190135Z 35022G28KT 10/01 A297 RMK A01 T01010013  RH  055%=      5-min Rain = 0
KPAD 190140Z 35024G32KT 09/01 A2971 RMK A01 T00930009  RH  057%=      5-min Rain = 0
KPAD 190145Z 35022G28KT 08/01 A2972 RMK A01 T00830008  RH  060%=      5-min Rain = 0
KPAD 190150Z 35022G29KT 08/01 A2972 RMK A01 T00790007  RH  061%=      5-min Rain = 0
KPAD 190155Z 34022G35KT 07/01 A2974 RMK A01 T00740007  RH  063%=      5-min Rain = 0
KPAD 190200Z 34026G36KT 07/01 A2975 RMK A01 T00680007  RH  066%=      5-min Rain = 0
KPAD 190205Z 34026G32KT 07/01 A2975 RMK A01 T00650006  RH  067%=      5-min Rain = 0
KPAD 190210Z 34023G28KT 06/01 A2976 RMK A01 T00620006  RH  068%=      5-min Rain = 0
KPAD 190215Z 34023G29KT 06/01 A2976 RMK A01 T00600006  RH  069%=      5-min Rain = 0
KPAD 190220Z 34023G28KT 06/01 A2976 RMK A01 T00590006  RH  070%=      5-min Rain = 0
KPAD 190225Z 33025G30KT 06/01 A2977 RMK A01 T00580007  RH  070%=      5-min Rain = 0
KPAD 190230Z 34024G31KT 06/01 A2978 RMK A01 T00590008  RH  071%=      5-min Rain = 0
KPAD 190235Z 33025G36KT 06/01 A2978 RMK A01 T00600008  RH  070%=      5-min Rain = 0
KPAD 190240Z 33026G35KT 06/01 A2978 RMK A01 T00610009  RH  070%=      5-min Rain = 0
KPAD 190245Z 34028G36KT 06/01 A2978 RMK A01 T00610010  RH  071%=      5-min Rain = 0
KPAD 190250Z 34028G34KT 06/01 A2979 RMK A01 T00610010  RH  071%=      5-min Rain = 0
KPAD 190255Z 34026G35KT 06/01 A298 RMK A01 T00600009  RH  071%=      5-min Rain = 0
KPAD 190300Z 34025G32KT 06/01 A298 RMK A01 T00600010  RH  071%=      5-min Rain = 0
KPAD 190305Z 34028G36KT 06/01 A298 RMK A01 T00580010  RH  072%=      5-min Rain = 0
KPAD 190310Z 34026G33KT 06/01 A2981 RMK A01 T00580011  RH  073%=      5-min Rain = 0
KPAD 190315Z 34026G34KT 06/01 A2981 RMK A01 T00580011  RH  073%=      5-min Rain = 0
KPAD 190320Z 34024G34KT 06/01 A2981 RMK A01 T00580011  RH  073%=      5-min Rain = 0
KPAD 190325Z 34023G38KT 06/01 A2981 RMK A01 T00580011  RH  073%=      5-min Rain = 0
KPAD 190330Z 34029G36KT 06/01 A2982 RMK A01 T00560009  RH  072%=      5-min Rain = 0
KPAD 190335Z 34028G35KT 06/01 A2983 RMK A01 T00550009  RH  073%=      5-min Rain = 0
KPAD 190340Z 34026G33KT 06/01 A2983 RMK A01 T00550009  RH  073%=      5-min Rain = 0
KPAD 190345Z 34027G34KT 05/01 A2984 RMK A01 T00540008  RH  073%=      5-min Rain = 0
KPAD 190350Z 34026G32KT 05/01 A2984 RMK A01 T00540008  RH  073%=      5-min Rain = 0
KPAD 190355Z 34025G33KT 05/01 A2985 RMK A01 T00530007  RH  073%=      5-min Rain = 0
KPAD 190400Z 34025G31KT 05/01 A2985 RMK A01 T00520006  RH  073%=      5-min Rain = 0
KPAD 190405Z 35026G34KT 05/00 A2986 RMK A01 T00510004  RH  073%=      5-min Rain = 0
KPAD 190410Z 34025G34KT 05/00 A2987 RMK A01 T00500003  RH  072%=      5-min Rain = 0
KPAD 190415Z 34028G37KT 05/00 A2987 RMK A01 T00500000  RH  071%=      5-min Rain = 0
KPAD 190420Z 35025G34KT 05/M00 A2988 RMK A01 T00491001  RH  071%=      5-min Rain = 0
KPAD 190425Z 34030G39KT 05/M00 A2988 RMK A01 T00491002  RH  071%=      5-min Rain = 0
KPAD 190430Z 35027G35KT 05/M00 A2989 RMK A01 T00481002  RH  071%=      5-min Rain = 0
KPAD 190435Z 35029G37KT 05/M00 A299 RMK A01 T00471003  RH  071%=      5-min Rain = 0
KPAD 190440Z 35024G32KT 05/M00 A299 RMK A01 T00471003  RH  071%=      5-min Rain = 0
KPAD 190445Z 34027G34KT 05/M01 A2991 RMK A01 T00461005  RH  070%=      5-min Rain = 0
KPAD 190450Z 34026G35KT 05/M01 A2991 RMK A01 T00451006  RH  070%=      5-min Rain = 0
KPAD 190455Z 34028G37KT 05/M01 A2991 RMK A01 T00451008  RH  069%=      5-min Rain = 0
KPAD 190500Z 34028G38KT 04/M01 A2992 RMK A01 T00441009  RH  069%=      5-min Rain = 0
KPAD 190505Z 35027G38KT 04/M01 A2992 RMK A01 T00431010  RH  069%=      5-min Rain = 0
KPAD 190510Z 34028G40KT 04/M01 A2993 RMK A01 T00411012  RH  069%=      5-min Rain = 0
KPAD 190515Z 34027G37KT 04/M01 A2994 RMK A01 T00401013  RH  069%=      5-min Rain = 0
KPAD 190520Z 34028G35KT 04/M01 A2994 RMK A01 T00391014  RH  069%=      5-min Rain = 0
KPAD 190525Z 34028G35KT 04/M02 A2995 RMK A01 T00371015  RH  070%=      5-min Rain = 0
KPAD 190530Z 34028G40KT 04/M02 A2995 RMK A01 T00351015  RH  070%=      5-min Rain = 0
KPAD 190535Z 34027G38KT 04/M02 A2996 RMK A01 T00351015  RH  071%=      5-min Rain = 0
KPAD 190540Z 35027G36KT 03/M02 A2996 RMK A01 T00341016  RH  070%=      5-min Rain = 0
KPAD 190545Z 35026G33KT 03/M02 A2996 RMK A01 T00341016  RH  070%=      5-min Rain = 0
KPAD 190550Z 35025G32KT 04/M02 A2997 RMK A01 T00351017  RH  070%=      5-min Rain = 0
KPAD 190555Z 34023G33KT 04/M02 A2997 RMK A01 T00351017  RH  069%=      5-min Rain = 0

Page generated in 0.0128 seconds.